SLCO/CIJ METAR and TAF weather

Enter ICAO airport designator
Station Type Date Time Source
SLCO METAR 2021/09/19 15:00 UTC NOAA

SLCO 191500Z 31008KT 9999 FEW025 33/24 Q1013


Station Type Date Time Source
SLCO Decoded METAR 2021/09/19 15:00 UTC NOAA

Cobija, Bolivia (SLCO) 11-02S 068-47W 260M
Sep 19, 2021 - 11:00 AM EDT / 2021.09.19 1500 UTC
Wind: from the NW (310 degrees) at 9 MPH (8 KT):0
Visibility: greater than 7 mile(s):0
Sky conditions: mostly clear
Temperature: 91 F (33 C)
Heat index: 101.5 F (38.6 C):1
Dew Point: 75 F (24 C)
Relative Humidity: 59%
Pressure (altimeter): 29.91 in. Hg (1013 hPa)
ob: SLCO 191500Z 31008KT 9999 FEW025 33/24 Q1013
cycle: 15

Station Type Date Time Source
SLCO TAF 2021/09/19 18:24 UTC NOAA

TAF TAF SLCO 191600Z 1918/2018 32010KT 8000 SCT027 TX35/1919Z TN22/2010Z
BECMG 1922/2001 00000KT

Example: see airport list